Current Conditions
Partly Cloudy
Conditions



Pressure
1028.92 (hPa) - 30.38 (inHG)
Visibility

6.2 (miles) - 10.0 (km)
Temperature
9  °C
Temperature
6  °C
Dewpoint
82  %
 Humidity
Wind Speed
7  mph
6  kts
11  km/h
3.1  m/s
Wind Direction
N
45°
E
90°
135°
S
180°
225°
W
270°
315°
 340°

North North
West
Airport Data
EGVO
RAF Odiham
Metar :EGVO 271650Z 34006KT 9999 FEW028 09/06 Q1029 NOSIG RMK BLU BLU
Thu 27th January 16:50 pm
Raw Metar Info
Raw METAR is the most common format in the world for the transmission of observational weather data. It is highly standardized through the International Civil Aviation Organization (ICAO), which allows it to be understood throughout most of the world.
API Info
Data Provided by
https://www.checkwx.com/weather/EGVO

Aviation Weather providing METAR, TAF, AIRMET, SIGMET and OUTLOOK Weather Reports
© Info
CSS/SVG/PHP scripts were developed by weather34.com for use in the weather34 template © 2015-2022

Guide Info provided by Metar-Wikipedia